sensor_id;sensor_type;location;lat;lon;timestamp;pressure;altitude;pressure_sealevel;temperature;humidity
7586;BME280;12459;42.646;23.292;2024-02-23T00:06:43;93325.78;;;6.39;83.80
7586;BME280;12459;42.646;23.292;2024-02-23T00:21:45;93435.16;;;7.38;82.32
7586;BME280;12459;42.646;23.292;2024-02-23T00:36:51;93445.06;;;7.26;83.41
7586;BME280;12459;42.646;23.292;2024-02-23T00:51:53;93217.84;;;6.10;80.39
7586;BME280;12459;42.646;23.292;2024-02-23T01:06:54;93159.00;;;5.08;84.22
7586;BME280;12459;42.646;23.292;2024-02-23T01:21:56;93255.09;;;6.24;83.24
7586;BME280;12459;42.646;23.292;2024-02-23T01:37:02;93394.06;;;7.24;81.81
7586;BME280;12459;42.646;23.292;2024-02-23T01:52:04;93260.25;;;6.85;80.92
7586;BME280;12459;42.646;23.292;2024-02-23T02:07:06;92908.41;;;4.49;79.35
7586;BME280;12459;42.646;23.292;2024-02-23T02:22:08;93371.94;;;7.38;81.97
7586;BME280;12459;42.646;23.292;2024-02-23T02:37:10;93215.22;;;5.82;81.92
7586;BME280;12459;42.646;23.292;2024-02-23T02:52:12;93249.03;;;7.29;78.77
7586;BME280;12459;42.646;23.292;2024-02-23T03:07:14;93231.75;;;6.78;79.48
7586;BME280;12459;42.646;23.292;2024-02-23T03:22:16;93404.97;;;7.65;82.53
7586;BME280;12459;42.646;23.292;2024-02-23T03:37:18;93098.69;;;4.77;86.56
7586;BME280;12459;42.646;23.292;2024-02-23T03:52:20;93129.84;;;5.23;87.42
7586;BME280;12459;42.646;23.292;2024-02-23T04:07:22;93167.78;;;5.55;86.81
7586;BME280;12459;42.646;23.292;2024-02-23T04:22:23;93047.50;;;4.94;87.00
7586;BME280;12459;42.646;23.292;2024-02-23T04:37:25;93173.06;;;5.12;88.56
7586;BME280;12459;42.646;23.292;2024-02-23T04:52:27;93263.44;;;6.19;86.82
7586;BME280;12459;42.646;23.292;2024-02-23T05:07:29;93020.56;;;4.35;86.15
7586;BME280;12459;42.646;23.292;2024-02-23T05:22:30;93394.22;;;6.35;89.37
7586;BME280;12459;42.646;23.292;2024-02-23T05:37:32;93397.25;;;6.41;88.36
7586;BME280;12459;42.646;23.292;2024-02-23T05:52:34;93397.50;;;7.18;85.12
7586;BME280;12459;42.646;23.292;2024-02-23T06:07:37;93468.56;;;7.71;81.98
7586;BME280;12459;42.646;23.292;2024-02-23T06:22:39;93466.44;;;8.17;80.92
7586;BME280;12459;42.646;23.292;2024-02-23T06:37:40;93315.34;;;8.38;76.19
7586;BME280;12459;42.646;23.292;2024-02-23T06:52:42;93315.97;;;8.52;73.70
7586;BME280;12459;42.646;23.292;2024-02-23T07:07:44;93451.28;;;10.16;70.61
7586;BME280;12459;42.646;23.292;2024-02-23T07:22:46;93445.22;;;10.12;71.94
7586;BME280;12459;42.646;23.292;2024-02-23T07:37:48;93147.44;;;8.77;68.91
7586;BME280;12459;42.646;23.292;2024-02-23T07:52:50;93454.31;;;10.76;70.25
7586;BME280;12459;42.646;23.292;2024-02-23T08:07:52;93255.09;;;9.89;67.39
7586;BME280;12459;42.646;23.292;2024-02-23T08:22:54;93423.84;;;11.33;68.68
7586;BME280;12459;42.646;23.292;2024-02-23T08:37:56;92988.38;;;8.96;67.61
7586;BME280;12459;42.646;23.292;2024-02-23T08:52:58;93241.06;;;11.50;64.71
7586;BME280;12459;42.646;23.292;2024-02-23T09:07:59;92958.06;;;9.89;64.58
7586;BME280;12459;42.646;23.292;2024-02-23T09:23:01;93302.00;;;12.71;61.74
7586;BME280;12459;42.646;23.292;2024-02-23T09:38:03;93187.72;;;12.50;59.23
7586;BME280;12459;42.646;23.292;2024-02-23T09:53:05;93398.41;;;14.30;58.75
7586;BME280;12459;42.646;23.292;2024-02-23T10:08:10;93257.09;;;13.67;57.14
7586;BME280;12459;42.646;23.292;2024-02-23T10:23:14;93359.31;;;14.63;55.61
7586;BME280;12459;42.646;23.292;2024-02-23T10:38:18;93167.59;;;13.76;55.37
7586;BME280;12459;42.646;23.292;2024-02-23T10:53:20;93156.69;;;13.92;52.95
7586;BME280;12459;42.646;23.292;2024-02-23T11:08:23;93276.19;;;15.27;52.36
7586;BME280;12459;42.646;23.292;2024-02-23T11:23:25;93171.16;;;15.20;48.92
7586;BME280;12459;42.646;23.292;2024-02-23T11:38:27;93236.91;;;16.28;48.94
7586;BME280;12459;42.646;23.292;2024-02-23T11:53:29;93265.50;;;16.48;46.53
7586;BME280;12459;42.646;23.292;2024-02-23T12:08:31;93184.00;;;16.18;46.66
7586;BME280;12459;42.646;23.292;2024-02-23T12:23:44;92801.03;;;12.87;47.59
7586;BME280;12459;42.646;23.292;2024-02-23T12:38:46;93085.28;;;15.37;46.86
7586;BME280;12459;42.646;23.292;2024-02-23T12:53:48;92819.28;;;14.50;46.84
7586;BME280;12459;42.646;23.292;2024-02-23T13:08:50;93209.22;;;16.83;44.86
7586;BME280;12459;42.646;23.292;2024-02-23T13:23:52;93000.84;;;15.27;45.20
7586;BME280;12459;42.646;23.292;2024-02-23T13:38:54;93182.00;;;16.86;43.13
7586;BME280;12459;42.646;23.292;2024-02-23T13:53:58;93172.22;;;16.71;42.73
7586;BME280;12459;42.646;23.292;2024-02-23T14:09:00;93067.72;;;15.73;43.97
7586;BME280;12459;42.646;23.292;2024-02-23T14:24:02;92984.19;;;14.80;44.42
7586;BME280;12459;42.646;23.292;2024-02-23T14:39:04;93264.53;;;16.23;45.87
7586;BME280;12459;42.646;23.292;2024-02-23T14:54:06;93092.97;;;14.77;46.09
7586;BME280;12459;42.646;23.292;2024-02-23T15:09:08;93041.00;;;14.54;46.94
7586;BME280;12459;42.646;23.292;2024-02-23T15:24:09;93117.78;;;15.24;46.95
7586;BME280;12459;42.646;23.292;2024-02-23T15:39:11;92851.97;;;12.68;47.83
7586;BME280;12459;42.646;23.292;2024-02-23T15:54:13;93073.59;;;14.47;49.12
7586;BME280;12459;42.646;23.292;2024-02-23T16:09:15;93033.00;;;13.85;48.41
7586;BME280;12459;42.646;23.292;2024-02-23T16:24:17;93229.56;;;14.83;50.39
7586;BME280;12459;42.646;23.292;2024-02-23T16:39:19;92963.91;;;13.35;50.26
7586;BME280;12459;42.646;23.292;2024-02-23T16:54:21;93036.34;;;13.55;51.83
7586;BME280;12459;42.646;23.292;2024-02-23T17:09:23;93127.09;;;14.14;51.75
7586;BME280;12459;42.646;23.292;2024-02-23T17:24:25;92996.22;;;13.09;51.19
7586;BME280;12459;42.646;23.292;2024-02-23T17:39:27;93195.75;;;14.10;52.55
7586;BME280;12459;42.646;23.292;2024-02-23T17:54:28;93190.72;;;13.86;54.66
7586;BME280;12459;42.646;23.292;2024-02-23T18:09:30;93121.16;;;13.72;54.06
7586;BME280;12459;42.646;23.292;2024-02-23T18:24:32;93161.66;;;13.81;55.33
7586;BME280;12459;42.646;23.292;2024-02-23T18:39:34;93131.47;;;13.86;55.16
7586;BME280;12459;42.646;23.292;2024-02-23T18:54:36;92843.75;;;11.16;56.04
7586;BME280;12459;42.646;23.292;2024-02-23T19:09:38;93079.00;;;13.31;55.85
7586;BME280;12459;42.646;23.292;2024-02-23T19:24:40;93182.13;;;13.66;54.76
7586;BME280;12459;42.646;23.292;2024-02-23T19:39:41;93306.97;;;14.48;53.86
7586;BME280;12459;42.646;23.292;2024-02-23T19:54:43;92950.91;;;11.94;55.59
7586;BME280;12459;42.646;23.292;2024-02-23T20:09:46;93278.50;;;14.47;56.72
7586;BME280;12459;42.646;23.292;2024-02-23T20:24:48;92662.28;;;10.46;55.51
7586;BME280;12459;42.646;23.292;2024-02-23T20:39:50;93064.66;;;12.83;57.15
7586;BME280;12459;42.646;23.292;2024-02-23T20:54:52;93079.00;;;13.18;57.53
7586;BME280;12459;42.646;23.292;2024-02-23T21:09:54;93255.69;;;13.63;60.30
7586;BME280;12459;42.646;23.292;2024-02-23T21:24:55;92947.56;;;11.61;59.59
7586;BME280;12459;42.646;23.292;2024-02-23T21:39:57;93244.72;;;13.57;60.39
7586;BME280;12459;42.646;23.292;2024-02-23T21:54:59;93260.44;;;14.10;59.18
7586;BME280;12459;42.646;23.292;2024-02-23T22:10:01;93295.00;;;14.24;59.25
7586;BME280;12459;42.646;23.292;2024-02-23T22:25:03;93043.47;;;12.60;59.59
7586;BME280;12459;42.646;23.292;2024-02-23T22:40:05;93115.25;;;13.26;59.64
7586;BME280;12459;42.646;23.292;2024-02-23T22:55:10;93132.59;;;13.38;58.26
7586;BME280;12459;42.646;23.292;2024-02-23T23:10:12;93072.31;;;12.01;60.08
7586;BME280;12459;42.646;23.292;2024-02-23T23:25:14;93106.38;;;12.75;59.14
7586;BME280;12459;42.646;23.292;2024-02-23T23:40:16;93050.59;;;12.37;59.45
7586;BME280;12459;42.646;23.292;2024-02-23T23:55:18;93296.84;;;13.63;59.26
